Time;durP1;ratioP1;P1;durP2;ratioP2;P2;SDS_P1;SDS_P2;PMS_P1;PMS_P2;Temp;Humidity;BMP_temperature;BMP_pressure;BME280_temperature;BME280_humidity;BME280_pressure;Samples;Min_cycle;Max_cycle;Signal;HPM_P1;HPM_P2
2023/07/18 00:01:45;;;;;;;7.07;4.18;;;17.50;99.90;;;;;;4976063;28;20450;-80
2023/07/18 00:04:10;;;;;;;4.40;4.00;;;17.40;99.90;;;;;;4992532;28;20398;-80
2023/07/18 00:06:40;;;;;;;6.33;3.90;;;17.40;99.90;;;;;;4999635;28;20394;-80
2023/07/18 00:09:06;;;;;;;4.40;4.00;;;17.30;99.90;;;;;;4999698;28;20818;-80
2023/07/18 00:11:31;;;;;;;6.23;4.40;;;17.30;99.90;;;;;;4998970;28;20414;-80
2023/07/18 00:13:57;;;;;;;4.70;4.20;;;17.20;99.90;;;;;;4996024;28;20771;-80
2023/07/18 00:16:22;;;;;;;4.80;4.10;;;17.30;99.90;;;;;;4995290;28;20394;-80
2023/07/18 00:18:50;;;;;;;5.73;3.77;;;17.20;99.90;;;;;;5000136;28;20383;-80
2023/07/18 00:21:16;;;;;;;5.10;4.22;;;17.30;99.90;;;;;;4981931;28;20414;-80
2023/07/18 00:23:41;;;;;;;5.05;3.90;;;17.20;99.90;;;;;;4973079;28;20408;-80
2023/07/18 00:26:08;;;;;;;5.30;4.47;;;17.10;99.90;;;;;;4959655;28;20419;-80
2023/07/18 00:28:34;;;;;;;4.90;4.27;;;17.10;99.90;;;;;;4974586;28;20846;-80
2023/07/18 00:31:00;;;;;;;6.40;4.27;;;17.10;99.90;;;;;;4972969;28;20444;-80
2023/07/18 00:33:26;;;;;;;4.97;3.90;;;17.20;99.90;;;;;;4974675;28;20475;-79
2023/07/18 00:35:52;;;;;;;5.93;4.13;;;17.10;99.90;;;;;;4957881;28;20424;-80
2023/07/18 00:38:30;;;;;;;5.80;4.40;;;17.00;99.90;;;;;;5041602;23;20421;-88
2023/07/18 00:41:14;;;;;;;6.27;4.13;;;16.90;99.90;;;;;;5032184;28;20451;-89
2023/07/18 00:43:48;;;;;;;5.65;4.30;;;16.90;99.90;;;;;;5009872;28;20393;-88
2023/07/18 00:46:41;;;;;;;4.45;3.72;;;16.80;99.90;;;;;;5010577;28;20397;-88
2023/07/18 00:49:21;;;;;;;5.68;4.70;;;16.80;99.90;;;;;;4982063;28;20489;-88
2023/07/18 00:52:16;;;;;;;;;;;;;;;;;;;;;
2023/07/18 00:54:55;;;;;;;5.75;4.10;;;16.70;99.90;;;;;;4992196;28;20904;-90
2023/07/18 00:57:30;;;;;;;4.50;3.75;;;17.10;99.90;;;;;;4993947;28;20402;-90
2023/07/18 01:00:09;;;;;;;6.75;3.55;;;17.00;99.90;;;;;;4994093;28;20390;-90
2023/07/18 01:02:41;;;;;;;8.10;4.37;;;17.30;99.90;;;;;;4990057;28;20426;-90
2023/07/18 01:05:19;;;;;;;4.40;3.40;;;16.70;99.90;;;;;;4992251;28;20445;-92
2023/07/18 01:07:48;;;;;;;6.43;3.70;;;16.90;99.90;;;;;;4989716;28;20751;-90
2023/07/18 01:10:29;;;;;;;4.95;4.00;;;16.40;99.90;;;;;;4987411;28;20417;-90
2023/07/18 01:13:05;;;;;;;5.32;3.80;;;16.60;99.90;;;;;;4972305;28;20412;-90
2023/07/18 01:15:43;;;;;;;4.57;3.80;;;16.40;99.90;;;;;;4973325;28;20502;-91
2023/07/18 01:18:42;;;;;;;4.75;4.20;;;16.70;99.90;;;;;;4976229;28;20409;-90
2023/07/18 01:21:31;;;;;;;5.15;3.90;;;16.40;99.90;;;;;;4979070;28;20482;-90
2023/07/18 01:24:02;;;;;;;5.43;3.90;;;16.40;99.90;;;;;;4958264;28;20514;-91
2023/07/18 01:26:56;;;;;;;5.10;3.72;;;16.40;99.90;;;;;;4975954;28;20410;-91
2023/07/18 01:29:28;;;;;;;6.57;3.97;;;16.30;99.90;;;;;;4991238;28;20484;-92
2023/07/18 01:32:35;;;;;;;4.40;3.42;;;16.80;99.90;;;;;;4990441;28;20438;-91
2023/07/18 01:35:08;;;;;;;5.35;3.97;;;16.40;99.90;;;;;;5003217;28;20924;-87
2023/07/18 01:37:51;;;;;;;4.90;3.40;;;16.40;99.90;;;;;;4991012;28;20522;-87
2023/07/18 01:40:35;;;;;;;4.10;3.70;;;16.40;99.90;;;;;;4983338;28;20403;-87
2023/07/18 01:43:01;;;;;;;5.03;3.60;;;16.40;99.90;;;;;;4991374;28;20806;-87
2023/07/18 01:45:38;;;;;;;4.20;3.80;;;16.30;99.90;;;;;;4991107;28;20387;-86
2023/07/18 01:48:06;;;;;;;5.03;3.90;;;16.70;99.90;;;;;;4989060;28;20408;-86
2023/07/18 01:50:32;;;;;;;5.37;3.80;;;16.20;99.90;;;;;;4990703;28;20421;-87
2023/07/18 01:53:10;;;;;;;4.20;3.80;;;16.20;99.90;;;;;;5013879;28;20393;-86
2023/07/18 01:55:40;;;;;;;7.70;4.10;;;17.40;99.90;;;;;;4997410;28;20870;-87
2023/07/18 01:58:05;;;;;;;5.10;3.85;;;16.10;99.90;;;;;;4992370;28;20410;-87
2023/07/18 02:00:32;;;;;;;5.60;4.45;;;16.10;99.90;;;;;;4993000;28;20417;-87
2023/07/18 02:03:15;;;;;;;5.18;3.85;;;16.50;99.90;;;;;;4993614;28;20431;-87
2023/07/18 02:05:43;;;;;;;6.50;4.15;;;16.00;99.90;;;;;;4993717;28;20505;-88
2023/07/18 02:08:27;;;;;;;;;;;;;;;;;;;;;
2023/07/18 02:10:59;;;;;;;5.35;3.30;;;16.60;99.90;;;;;;4994549;28;20414;-88
2023/07/18 02:13:29;;;;;;;4.00;3.15;;;16.00;99.90;;;;;;4993760;28;20441;-87
2023/07/18 02:16:01;;;;;;;3.95;3.35;;;16.00;99.90;;;;;;5009728;28;20382;-88
2023/07/18 02:18:27;;;;;;;5.57;3.40;;;16.20;99.90;;;;;;4991458;28;20844;-87
2023/07/18 02:20:53;;;;;;;4.90;3.30;;;16.00;99.90;;;;;;4993022;28;20434;-88
2023/07/18 02:23:24;;;;;;;4.30;3.20;;;16.60;99.90;;;;;;4992342;28;20394;-87
2023/07/18 02:26:03;;;;;;;5.00;3.10;;;15.80;99.90;;;;;;4993192;28;20608;-88
2023/07/18 02:28:46;;;;;;;3.30;3.00;;;16.50;99.90;;;;;;4992153;28;20516;-87
2023/07/18 02:31:23;;;;;;;4.50;2.80;;;16.30;99.90;;;;;;4992641;28;20418;-88
2023/07/18 02:33:57;;;;;;;4.07;2.70;;;16.30;99.90;;;;;;4993536;28;20806;-88
2023/07/18 02:36:26;;;;;;;3.50;2.60;;;16.30;99.90;;;;;;4992896;28;20422;-88
2023/07/18 02:39:01;;;;;;;3.65;2.92;;;16.30;99.90;;;;;;4992776;28;20925;-88
2023/07/18 02:41:36;;;;;;;4.20;2.75;;;16.70;99.90;;;;;;5008150;28;20386;-88
2023/07/18 02:44:05;;;;;;;4.50;3.10;;;16.30;99.90;;;;;;5006836;28;20901;-87
2023/07/18 02:46:31;;;;;;;5.00;3.38;;;16.30;99.90;;;;;;4993652;28;20516;-85
2023/07/18 02:49:05;;;;;;;4.68;2.70;;;16.40;99.90;;;;;;4993963;28;20394;-87
2023/07/18 02:51:49;;;;;;;4.70;2.90;;;16.40;99.90;;;;;;4995886;28;20437;-86
2023/07/18 02:54:43;;;;;;;3.00;2.70;;;16.40;99.90;;;;;;4992520;28;20897;-86
2023/07/18 02:57:24;;;;;;;4.03;2.70;;;16.70;99.90;;;;;;4999959;28;20422;-86
2023/07/18 02:59:59;;;;;;;5.57;2.58;;;16.40;99.90;;;;;;5002560;28;20505;-86
2023/07/18 03:02:32;;;;;;;4.05;2.60;;;16.50;99.90;;;;;;5007301;28;20390;-87
2023/07/18 03:05:03;;;;;;;3.08;2.60;;;16.40;99.90;;;;;;4994322;28;20394;-86
2023/07/18 03:07:37;;;;;;;3.38;2.35;;;16.30;99.90;;;;;;4995133;28;20437;-86
2023/07/18 03:10:14;;;;;;;3.60;2.60;;;16.20;99.90;;;;;;4993466;28;20415;-87
2023/07/18 03:12:41;;;;;;;3.70;2.30;;;16.30;99.90;;;;;;4992152;28;20386;-86
2023/07/18 03:15:28;;;;;;;5.72;2.70;;;16.30;99.90;;;;;;4992036;28;20386;-86
2023/07/18 03:17:57;;;;;;;3.60;2.30;;;16.20;99.90;;;;;;4993342;28;20394;-86
2023/07/18 03:20:25;;;;;;;4.32;2.75;;;16.50;99.90;;;;;;4993453;28;20387;-86
2023/07/18 03:22:50;;;;;;;6.75;2.53;;;16.20;99.90;;;;;;4992296;28;20449;-86
2023/07/18 03:25:22;;;;;;;3.03;1.90;;;16.70;99.90;;;;;;4990772;28;21000;-87
2023/07/18 03:28:04;;;;;;;2.88;2.67;;;16.00;99.90;;;;;;4991912;28;20390;-87
2023/07/18 03:30:33;;;;;;;2.40;2.20;;;16.00;99.90;;;;;;4992308;28;20450;-87
2023/07/18 03:33:04;;;;;;;5.00;2.15;;;16.10;99.90;;;;;;4992650;28;20479;-87
2023/07/18 03:35:36;;;;;;;4.57;2.85;;;16.00;99.90;;;;;;4992093;28;20394;-87
2023/07/18 03:38:04;;;;;;;4.40;2.80;;;16.00;99.90;;;;;;4991385;28;20897;-86
2023/07/18 03:40:46;;;;;;;4.07;2.50;;;16.20;99.90;;;;;;4993882;28;20486;-87
2023/07/18 03:46:39;;;;;;;3.00;2.70;;;15.80;99.90;;;;;;4993912;28;20386;-88
2023/07/18 03:52:03;;;;;;;3.60;2.95;;;15.80;99.90;;;;;;4993378;28;20417;-87
2023/07/18 03:54:45;;;;;;;3.72;2.78;;;15.80;99.90;;;;;;4992189;28;20390;-87
2023/07/18 03:57:17;;;;;;;3.35;2.80;;;15.60;99.90;;;;;;4993852;28;20386;-87
2023/07/18 04:00:17;;;;;;;3.50;2.50;;;15.70;99.90;;;;;;4992501;28;20754;-86
2023/07/18 04:02:46;;;;;;;2.97;2.67;;;16.70;99.90;;;;;;4990391;28;20395;-87
2023/07/18 04:05:17;;;;;;;3.63;2.60;;;15.70;99.90;;;;;;4993460;28;20391;-87
2023/07/18 04:07:51;;;;;;;3.97;2.80;;;15.80;99.90;;;;;;4991465;28;20397;-87
2023/07/18 04:10:31;;;;;;;4.03;2.40;;;15.70;99.90;;;;;;4991507;28;20888;-87
2023/07/18 04:12:56;;;;;;;3.80;2.50;;;15.60;99.90;;;;;;4991629;28;20389;-87
2023/07/18 04:15:31;;;;;;;3.63;2.30;;;15.60;99.90;;;;;;4992132;28;20477;-87
2023/07/18 04:17:57;;;;;;;3.72;2.60;;;15.90;99.90;;;;;;4992497;28;20406;-87
2023/07/18 04:20:31;;;;;;;4.80;2.60;;;16.80;99.90;;;;;;4992531;28;20391;-87
2023/07/18 04:23:11;;;;;;;3.70;2.40;;;15.60;99.90;;;;;;4993601;28;20390;-87
2023/07/18 04:26:00;;;;;;;5.68;2.90;;;15.50;99.90;;;;;;4992469;28;20422;-87
2023/07/18 04:28:33;;;;;;;3.90;2.90;;;15.80;99.90;;;;;;4992998;28;20786;-88
2023/07/18 04:31:08;;;;;;;4.03;2.40;;;15.70;99.90;;;;;;4991580;28;20410;-87
2023/07/18 04:33:45;;;;;;;3.60;2.40;;;15.60;99.90;;;;;;4991966;28;20401;-87
2023/07/18 04:36:13;;;;;;;4.70;2.50;;;15.50;99.90;;;;;;4991753;28;20805;-87
2023/07/18 04:38:44;;;;;;;2.63;2.40;;;15.90;99.90;;;;;;4992959;28;20894;-87
2023/07/18 04:41:15;;;;;;;4.20;2.38;;;15.60;99.90;;;;;;4991643;28;20433;-87
2023/07/18 04:43:44;;;;;;;4.47;2.53;;;15.60;99.90;;;;;;4991372;28;20398;-87
2023/07/18 04:46:10;;;;;;;2.60;2.15;;;16.70;99.90;;;;;;4990907;28;20917;-87
2023/07/18 04:48:36;;;;;;;4.55;2.50;;;15.40;99.90;;;;;;4991252;28;20401;-87
2023/07/18 04:51:17;;;;;;;3.60;2.58;;;16.00;99.90;;;;;;5007497;28;20418;-87
2023/07/18 04:53:57;;;;;;;2.90;2.53;;;15.70;99.90;;;;;;4994009;28;20420;-87
2023/07/18 04:56:28;;;;;;;3.70;2.03;;;15.80;99.90;;;;;;5001624;28;20398;-87
2023/07/18 04:58:54;;;;;;;3.30;2.55;;;15.80;99.90;;;;;;4992914;28;20390;-87
2023/07/18 05:01:57;;;;;;;4.70;2.30;;;16.70;99.90;;;;;;5007277;28;20403;-88
2023/07/18 05:04:33;;;;;;;4.10;2.35;;;15.90;99.90;;;;;;4994457;28;20397;-87
2023/07/18 05:07:01;;;;;;;2.55;2.33;;;16.00;99.90;;;;;;5007097;28;20406;-87
2023/07/18 05:09:28;;;;;;;3.72;2.40;;;16.40;99.90;;;;;;4991299;28;20441;-88
2023/07/18 05:11:56;;;;;;;2.38;2.10;;;16.10;99.90;;;;;;4992429;28;20445;-87
2023/07/18 05:14:29;;;;;;;2.67;2.28;;;16.30;99.90;;;;;;4992190;28;20390;-87
2023/07/18 05:16:55;;;;;;;2.97;2.37;;;16.20;99.90;;;;;;5008056;28;20386;-87
2023/07/18 05:19:24;;;;;;;4.53;2.60;;;16.30;99.90;;;;;;5005294;28;20390;-87
2023/07/18 05:21:52;;;;;;;4.03;2.40;;;16.40;99.90;;;;;;4991599;28;20925;-86
2023/07/18 05:24:18;;;;;;;3.85;2.95;;;16.50;99.90;;;;;;4990850;28;20421;-87
2023/07/18 05:26:52;;;;;;;3.70;2.40;;;16.50;99.90;;;;;;4993866;28;20394;-87
2023/07/18 05:29:28;;;;;;;3.33;2.30;;;16.50;99.90;;;;;;4991695;28;20430;-87
2023/07/18 05:31:57;;;;;;;6.45;2.60;;;16.90;99.90;;;;;;4995738;28;20432;-87
2023/07/18 05:34:43;;;;;;;2.60;2.10;;;16.60;99.90;;;;;;4991492;28;20814;-87
2023/07/18 05:37:12;;;;;;;2.97;2.42;;;16.60;99.90;;;;;;4990277;28;20401;-88
2023/07/18 05:39:38;;;;;;;2.67;2.30;;;16.70;99.90;;;;;;5009349;28;20434;-86
2023/07/18 05:42:09;;;;;;;3.70;2.20;;;16.80;99.90;;;;;;4997147;28;20489;-87
2023/07/18 05:44:38;;;;;;;3.78;2.00;;;17.00;99.90;;;;;;4990130;28;20394;-87
2023/07/18 05:47:09;;;;;;;3.80;2.23;;;16.90;99.90;;;;;;5002252;23;20824;-87
2023/07/18 05:49:35;;;;;;;3.50;2.60;;;17.00;99.90;;;;;;4971832;28;20396;-87
2023/07/18 05:52:01;;;;;;;5.25;2.28;;;17.00;99.90;;;;;;4970905;28;20463;-87
2023/07/18 05:54:40;;;;;;;2.53;2.30;;;17.20;99.90;;;;;;4971090;28;20903;-87
2023/07/18 05:57:06;;;;;;;4.50;2.25;;;17.00;99.90;;;;;;4971285;28;20825;-87
2023/07/18 05:59:37;;;;;;;2.65;2.45;;;17.20;99.90;;;;;;4971161;28;20479;-87
2023/07/18 06:02:04;;;;;;;3.78;2.20;;;17.50;99.90;;;;;;4972132;28;20450;-87
2023/07/18 06:04:36;;;;;;;3.85;2.50;;;17.40;99.90;;;;;;4972715;28;20526;-87
2023/07/18 06:07:03;;;;;;;3.80;2.10;;;17.60;99.90;;;;;;4990844;28;20408;-87
2023/07/18 06:09:29;;;;;;;3.50;2.40;;;17.40;99.90;;;;;;4971355;28;20389;-88
2023/07/18 06:11:55;;;;;;;2.67;2.20;;;17.70;99.90;;;;;;4970576;28;20832;-88
2023/07/18 06:14:21;;;;;;;4.68;2.30;;;18.00;99.90;;;;;;4973331;28;20428;-87
2023/07/18 06:16:47;;;;;;;2.55;2.15;;;18.20;99.90;;;;;;4970920;28;20400;-87
2023/07/18 06:19:15;;;;;;;4.03;2.60;;;18.10;99.90;;;;;;4971647;28;20388;-88
2023/07/18 06:21:46;;;;;;;3.88;2.53;;;18.10;99.90;;;;;;4970768;28;20415;-87
2023/07/18 06:24:11;;;;;;;4.68;2.75;;;18.10;99.90;;;;;;4970934;28;20424;-88
2023/07/18 06:26:37;;;;;;;3.97;2.70;;;18.30;99.90;;;;;;4970582;28;20431;-88
2023/07/18 06:29:03;;;;;;;3.13;2.60;;;18.60;99.90;;;;;;4970710;28;20954;-88
2023/07/18 06:31:29;;;;;;;4.95;3.00;;;19.00;99.90;;;;;;4970800;28;20407;-87
2023/07/18 06:33:54;;;;;;;3.53;2.78;;;18.70;99.90;;;;;;4971190;28;20445;-88
2023/07/18 06:36:23;;;;;;;6.32;3.30;;;18.50;99.90;;;;;;4971732;28;20395;-87
2023/07/18 06:38:49;;;;;;;4.05;3.00;;;19.10;99.90;;;;;;5017362;23;20441;-87
2023/07/18 06:41:14;;;;;;;6.40;3.27;;;19.00;99.90;;;;;;5001119;28;20394;-86
2023/07/18 06:43:40;;;;;;;6.43;3.10;;;19.30;99.90;;;;;;5006226;28;20380;-87
2023/07/18 06:46:07;;;;;;;4.57;2.55;;;19.10;99.90;;;;;;5018250;28;20455;-86
2023/07/18 06:48:33;;;;;;;4.85;3.30;;;19.90;99.90;;;;;;5016828;28;20396;-86
2023/07/18 06:50:59;;;;;;;4.73;3.07;;;19.20;99.90;;;;;;5017086;28;20401;-87
2023/07/18 06:53:25;;;;;;;3.70;2.90;;;19.30;99.90;;;;;;5014814;28;20420;-86
2023/07/18 06:55:51;;;;;;;7.15;3.63;;;19.30;99.90;;;;;;5017411;28;20389;-86
2023/07/18 06:58:17;;;;;;;5.07;2.97;;;19.00;99.90;;;;;;5015996;28;20399;-87
2023/07/18 07:00:44;;;;;;;4.35;2.72;;;19.50;99.90;;;;;;5016921;28;20430;-87
2023/07/18 07:03:10;;;;;;;5.50;3.00;;;19.60;99.90;;;;;;5016339;28;20764;-86
2023/07/18 07:05:43;;;;;;;4.55;3.00;;;19.60;99.90;;;;;;5015622;28;20385;-87
2023/07/18 07:08:09;;;;;;;6.05;3.25;;;19.60;99.90;;;;;;5015308;28;20396;-87
2023/07/18 07:10:36;;;;;;;3.83;2.70;;;19.80;99.90;;;;;;5015733;28;20404;-87
2023/07/18 07:13:02;;;;;;;3.10;2.60;;;19.80;99.90;;;;;;5013722;28;20392;-87
2023/07/18 07:15:28;;;;;;;3.60;2.75;;;19.80;99.90;;;;;;5015326;28;20383;-86
2023/07/18 07:17:54;;;;;;;5.03;2.90;;;20.10;99.90;;;;;;5014983;28;20472;-88
2023/07/18 07:20:20;;;;;;;4.38;2.53;;;20.00;99.90;;;;;;5013366;28;20397;-87
2023/07/18 07:22:47;;;;;;;8.37;2.73;;;20.10;99.90;;;;;;5014341;28;20467;-86
2023/07/18 07:25:14;;;;;;;3.88;3.20;;;20.20;99.90;;;;;;5013840;28;20401;-87
2023/07/18 07:27:44;;;;;;;3.50;2.40;;;20.20;99.90;;;;;;5014071;28;20408;-87
2023/07/18 07:30:10;;;;;;;5.43;2.83;;;20.30;99.90;;;;;;5013338;28;20504;-88
2023/07/18 07:32:36;;;;;;;3.40;2.70;;;20.20;99.90;;;;;;5012879;28;20393;-87
2023/07/18 07:35:04;;;;;;;4.70;3.00;;;20.20;99.90;;;;;;4994516;28;20406;-87
2023/07/18 07:37:30;;;;;;;5.75;3.30;;;20.30;99.90;;;;;;4988349;28;20494;-86
2023/07/18 07:40:06;;;;;;;4.00;3.33;;;20.40;99.90;;;;;;4976598;28;20412;-86
2023/07/18 07:42:36;;;;;;;3.95;2.72;;;20.60;99.90;;;;;;5010812;28;20906;-86
2023/07/18 07:45:01;;;;;;;3.80;2.60;;;20.60;99.90;;;;;;4994548;28;20398;-86
2023/07/18 07:47:30;;;;;;;4.78;2.60;;;20.60;99.90;;;;;;4995130;28;20878;-87
2023/07/18 07:49:55;;;;;;;4.35;3.05;;;20.60;99.90;;;;;;4995069;28;20453;-84
2023/07/18 07:52:21;;;;;;;4.22;2.72;;;20.80;99.90;;;;;;4995432;28;20400;-87
2023/07/18 07:54:48;;;;;;;4.27;2.60;;;20.90;99.90;;;;;;4999064;28;20404;-86
2023/07/18 07:57:14;;;;;;;4.05;2.50;;;20.80;99.90;;;;;;4998167;28;20392;-87
2023/07/18 07:59:42;;;;;;;5.20;2.65;;;21.70;99.90;;;;;;4997226;28;20400;-86
2023/07/18 08:02:08;;;;;;;4.72;2.53;;;20.90;99.90;;;;;;4996188;28;20477;-87
2023/07/18 08:04:34;;;;;;;7.80;2.60;;;20.90;99.90;;;;;;4996149;28;20414;-86
2023/07/18 08:07:00;;;;;;;3.25;2.30;;;21.00;99.90;;;;;;5012831;28;20806;-87
2023/07/18 08:09:25;;;;;;;4.70;2.70;;;20.80;99.90;;;;;;4997232;28;20493;-86
2023/07/18 08:11:53;;;;;;;3.53;2.30;;;21.60;99.90;;;;;;4993879;28;21003;-86
2023/07/18 08:14:19;;;;;;;6.40;2.75;;;21.20;99.90;;;;;;4995928;28;20399;-87
2023/07/18 08:16:44;;;;;;;3.13;2.70;;;21.00;99.90;;;;;;4987305;28;20764;-85
2023/07/18 08:19:11;;;;;;;3.60;2.70;;;21.40;99.90;;;;;;4997708;28;20442;-86
2023/07/18 08:21:37;;;;;;;4.53;2.95;;;21.20;99.90;;;;;;4993205;28;20839;-85
2023/07/18 08:24:02;;;;;;;4.70;2.33;;;21.20;99.90;;;;;;4993948;28;20398;-85
2023/07/18 08:26:28;;;;;;;4.25;2.42;;;21.20;99.90;;;;;;4998086;28;20406;-86
2023/07/18 08:28:53;;;;;;;2.60;2.40;;;21.40;99.90;;;;;;4996501;28;20390;-85
2023/07/18 08:31:19;;;;;;;3.42;2.58;;;21.50;99.90;;;;;;4988617;28;20796;-84
2023/07/18 08:33:45;;;;;;;5.70;3.10;;;21.60;99.90;;;;;;4987465;28;20478;-85
2023/07/18 08:36:11;;;;;;;3.47;2.70;;;21.60;99.90;;;;;;4998797;28;20902;-84
2023/07/18 08:38:37;;;;;;;4.50;2.70;;;21.70;99.90;;;;;;4982394;28;20493;-84
2023/07/18 08:41:03;;;;;;;4.55;2.72;;;21.50;99.90;;;;;;4986995;28;20956;-86
2023/07/18 08:43:30;;;;;;;3.30;2.45;;;21.60;99.90;;;;;;4996415;28;20403;-86
2023/07/18 08:45:57;;;;;;;3.13;2.20;;;21.80;99.90;;;;;;4998878;28;20394;-85
2023/07/18 08:48:23;;;;;;;3.53;2.40;;;21.80;99.90;;;;;;5001304;28;20406;-86
2023/07/18 08:50:51;;;;;;;4.53;2.60;;;21.80;99.90;;;;;;4996884;28;20452;-84
2023/07/18 08:53:16;;;;;;;5.40;2.70;;;21.80;99.90;;;;;;4998774;28;20472;-85
2023/07/18 08:55:43;;;;;;;3.33;2.30;;;21.80;99.90;;;;;;4996636;28;20391;-85
2023/07/18 08:58:08;;;;;;;3.70;2.50;;;21.90;99.90;;;;;;4994854;28;20894;-84
2023/07/18 09:00:34;;;;;;;4.97;2.90;;;22.10;99.90;;;;;;4996714;28;20407;-85
2023/07/18 09:02:59;;;;;;;3.10;2.30;;;22.50;99.90;;;;;;4994802;28;20395;-85
2023/07/18 09:05:36;;;;;;;3.70;2.40;;;22.60;99.90;;;;;;4996181;28;20387;-85
2023/07/18 09:08:03;;;;;;;3.53;2.38;;;23.30;99.90;;;;;;5017286;28;20411;-83
2023/07/18 09:10:29;;;;;;;4.40;2.47;;;22.80;99.90;;;;;;5016830;28;20421;-84
2023/07/18 09:13:00;;;;;;;3.30;3.00;;;22.80;99.90;;;;;;5017092;28;20422;-83
2023/07/18 09:15:26;;;;;;;3.30;2.30;;;22.90;99.90;;;;;;4998792;28;20441;-85
2023/07/18 09:17:57;;;;;;;6.40;2.57;;;22.80;99.90;;;;;;4997121;28;20402;-85
2023/07/18 09:20:24;;;;;;;3.30;2.60;;;22.60;99.90;;;;;;4995348;28;20770;-85
2023/07/18 09:22:55;;;;;;;4.15;2.60;;;22.80;99.90;;;;;;4990747;28;20402;-81
2023/07/18 09:25:20;;;;;;;4.60;2.50;;;23.00;99.90;;;;;;4994940;28;20397;-85
2023/07/18 09:27:49;;;;;;;5.47;2.53;;;22.70;99.90;;;;;;5012622;28;20414;-82
2023/07/18 09:30:22;;;;;;;3.10;2.25;;;22.60;99.90;;;;;;5015658;28;20469;-82
2023/07/18 09:32:52;;;;;;;4.88;2.60;;;22.60;99.90;;;;;;4999526;28;20416;-85
2023/07/18 09:35:18;;;;;;;6.40;2.10;;;22.30;99.90;;;;;;5001042;28;20430;-85
2023/07/18 09:37:48;;;;;;;4.00;2.58;;;22.00;99.90;;;;;;5000573;28;20401;-85
2023/07/18 09:40:17;;;;;;;2.90;2.40;;;21.70;99.90;;;;;;4999277;28;20448;-86
2023/07/18 09:42:45;;;;;;;3.38;2.40;;;21.50;99.90;;;;;;4999589;28;20390;-86
2023/07/18 09:45:15;;;;;;;5.15;2.35;;;21.50;99.90;;;;;;4999044;28;20806;-84
2023/07/18 09:47:41;;;;;;;4.23;2.30;;;21.60;99.90;;;;;;5023313;28;20474;-84
2023/07/18 09:50:14;;;;;;;3.00;2.40;;;21.80;99.90;;;;;;5019265;28;20401;-84
2023/07/18 09:52:43;;;;;;;5.40;2.60;;;22.10;99.90;;;;;;4993481;28;20399;-84
2023/07/18 09:55:10;;;;;;;4.50;2.20;;;22.30;99.90;;;;;;4992760;28;20404;-84
2023/07/18 09:57:39;;;;;;;3.13;2.50;;;23.40;99.90;;;;;;4992965;28;20380;-83
2023/07/18 10:00:05;;;;;;;2.78;2.30;;;22.70;99.90;;;;;;4991122;28;20391;-83
2023/07/18 10:02:34;;;;;;;6.18;2.35;;;23.00;99.90;;;;;;5009906;28;20395;-83
2023/07/18 10:05:02;;;;;;;3.88;2.50;;;23.20;99.90;;;;;;5007394;28;20399;-84
2023/07/18 10:07:29;;;;;;;6.20;2.90;;;23.50;99.90;;;;;;4991958;28;20919;-84
2023/07/18 10:09:56;;;;;;;3.38;2.50;;;23.80;99.90;;;;;;4987503;28;20388;-83
2023/07/18 10:12:21;;;;;;;3.45;2.40;;;24.20;99.90;;;;;;4994903;28;20396;-84
2023/07/18 10:14:57;;;;;;;3.30;2.50;;;24.00;99.90;;;;;;5002400;28;20404;-83
2023/07/18 10:17:25;;;;;;;3.97;3.00;;;23.80;99.90;;;;;;5020155;28;20386;-83
2023/07/18 10:19:51;;;;;;;4.10;2.90;;;23.60;99.90;;;;;;5019718;28;20420;-83
2023/07/18 10:22:27;;;;;;;3.20;2.50;;;23.30;99.90;;;;;;5003391;28;20395;-82
2023/07/18 10:24:57;;;;;;;4.10;2.80;;;23.00;99.90;;;;;;5000297;28;20471;-83
2023/07/18 10:27:25;;;;;;;4.43;2.70;;;23.00;99.90;;;;;;4999970;28;20398;-83
2023/07/18 10:30:04;;;;;;;6.65;2.83;;;22.80;99.90;;;;;;5000034;28;20407;-83
2023/07/18 10:32:31;;;;;;;3.85;2.90;;;22.40;99.90;;;;;;5006845;28;20428;-85
2023/07/18 10:34:59;;;;;;;3.38;3.08;;;22.50;99.90;;;;;;4994088;28;20396;-82
2023/07/18 10:37:27;;;;;;;4.60;2.83;;;22.70;99.90;;;;;;4995027;28;20421;-83
2023/07/18 10:39:54;;;;;;;4.63;2.92;;;22.80;99.90;;;;;;4999820;28;20483;-83
2023/07/18 10:42:29;;;;;;;5.87;3.40;;;22.70;99.90;;;;;;5001179;28;20846;-83
2023/07/18 10:44:56;;;;;;;6.53;3.00;;;22.50;99.90;;;;;;5001333;28;20390;-82
2023/07/18 10:47:22;;;;;;;4.23;3.40;;;22.40;99.90;;;;;;4997351;28;20422;-81
2023/07/18 10:49:47;;;;;;;4.53;2.90;;;22.20;99.90;;;;;;4981703;28;20392;-83
2023/07/18 10:52:15;;;;;;;4.47;3.33;;;22.10;99.90;;;;;;4984637;28;20407;-82
2023/07/18 10:54:45;;;;;;;4.32;2.97;;;22.00;99.90;;;;;;4982254;28;20388;-83
2023/07/18 10:57:10;;;;;;;4.75;3.30;;;21.90;99.90;;;;;;4978823;28;20768;-83
2023/07/18 10:59:38;;;;;;;10.85;3.30;;;21.60;99.90;;;;;;4995662;28;20398;-83
2023/07/18 11:02:04;;;;;;;7.57;3.60;;;21.40;99.90;;;;;;4981235;28;20536;-83
2023/07/18 11:04:30;;;;;;;4.40;3.20;;;21.30;99.90;;;;;;4976914;28;20429;-83
2023/07/18 11:06:56;;;;;;;5.90;3.57;;;21.10;99.90;;;;;;4977803;28;20450;-82
2023/07/18 11:09:25;;;;;;;4.10;3.53;;;21.00;99.90;;;;;;4976283;28;20836;-83
2023/07/18 11:11:51;;;;;;;6.13;2.85;;;20.90;99.90;;;;;;4987800;28;21142;-83
2023/07/18 11:14:18;;;;;;;3.80;2.83;;;20.80;99.90;;;;;;4997084;28;20386;-83
2023/07/18 11:16:44;;;;;;;5.13;3.63;;;20.90;99.90;;;;;;4995632;28;20394;-83
2023/07/18 11:19:10;;;;;;;5.07;3.20;;;21.00;99.90;;;;;;4976329;28;20457;-83
2023/07/18 11:21:37;;;;;;;5.53;3.53;;;21.10;99.90;;;;;;4976603;28;20388;-82
2023/07/18 11:24:03;;;;;;;4.65;3.22;;;21.20;99.90;;;;;;4977042;28;20392;-83
2023/07/18 11:26:29;;;;;;;5.28;3.50;;;21.20;99.90;;;;;;4976034;28;20427;-83
2023/07/18 11:28:57;;;;;;;3.47;2.87;;;21.30;99.90;;;;;;4984470;28;20475;-83
2023/07/18 11:31:25;;;;;;;3.40;3.10;;;21.10;99.90;;;;;;4975520;28;20974;-83
2023/07/18 11:33:53;;;;;;;4.93;3.20;;;21.20;99.90;;;;;;4984607;28;20489;-83
2023/07/18 11:36:19;;;;;;;4.53;3.10;;;21.10;99.90;;;;;;4994590;28;20490;-82
2023/07/18 11:38:49;;;;;;;3.40;3.10;;;21.10;99.90;;;;;;4989856;28;20764;-83
2023/07/18 11:41:30;;;;;;;3.97;3.10;;;21.10;99.90;;;;;;4976508;28;20427;-83
2023/07/18 11:43:56;;;;;;;4.53;3.10;;;21.10;99.90;;;;;;4976730;28;20403;-83
2023/07/18 11:46:33;;;;;;;4.10;3.10;;;21.20;99.90;;;;;;4992491;28;20902;-83
2023/07/18 11:49:00;;;;;;;4.57;2.90;;;21.30;99.90;;;;;;4995044;28;20390;-83
2023/07/18 11:51:27;;;;;;;3.90;3.40;;;21.50;99.90;;;;;;4994302;28;20429;-83
2023/07/18 11:53:53;;;;;;;5.45;3.20;;;21.70;99.90;;;;;;4993622;28;20963;-82
2023/07/18 11:56:20;;;;;;;4.40;3.40;;;22.00;99.90;;;;;;4994701;28;20885;-82
2023/07/18 11:58:45;;;;;;;6.00;3.20;;;22.10;99.90;;;;;;4994969;28;20739;-83
2023/07/18 12:01:11;;;;;;;4.53;3.10;;;22.00;99.90;;;;;;4985426;28;20406;-83
2023/07/18 12:03:36;;;;;;;6.30;3.40;;;21.90;99.90;;;;;;4975051;28;20486;-82
2023/07/18 12:06:02;;;;;;;4.90;3.50;;;21.80;99.90;;;;;;4975742;28;20396;-83
2023/07/18 12:08:27;;;;;;;3.70;3.10;;;21.90;99.90;;;;;;4975450;28;20384;-82
2023/07/18 12:10:53;;;;;;;3.10;2.80;;;21.90;99.90;;;;;;4979602;28;20397;-82
2023/07/18 12:13:19;;;;;;;4.60;3.30;;;21.80;99.90;;;;;;4995769;28;20787;-82
2023/07/18 12:15:44;;;;;;;4.65;3.20;;;21.70;99.90;;;;;;4981793;28;20388;-83
2023/07/18 12:18:11;;;;;;;4.10;3.35;;;21.60;99.90;;;;;;4979380;28;20763;-83
2023/07/18 12:20:37;;;;;;;4.40;3.10;;;21.60;99.90;;;;;;4976007;28;20741;-83
2023/07/18 12:23:03;;;;;;;6.03;3.43;;;21.60;99.90;;;;;;4979266;28;20398;-82
2023/07/18 12:25:31;;;;;;;6.75;3.50;;;21.50;99.90;;;;;;4993814;28;20391;-83
2023/07/18 12:27:58;;;;;;;4.67;3.00;;;21.30;99.90;;;;;;4999233;28;20410;-83
2023/07/18 12:30:24;;;;;;;4.60;2.97;;;21.30;99.90;;;;;;4973573;28;20931;-83
2023/07/18 12:32:49;;;;;;;7.23;3.67;;;21.40;99.90;;;;;;4974332;28;20392;-82
2023/07/18 12:35:15;;;;;;;3.80;3.50;;;21.30;99.90;;;;;;4992315;28;20952;-83
2023/07/18 12:37:41;;;;;;;5.37;3.40;;;21.20;99.90;;;;;;4992711;28;20822;-83
2023/07/18 12:40:07;;;;;;;5.22;4.00;;;21.30;99.90;;;;;;4984954;28;20404;-84
2023/07/18 12:42:33;;;;;;;4.03;3.42;;;21.40;99.90;;;;;;4974789;28;20443;-83
2023/07/18 12:44:58;;;;;;;5.00;3.50;;;21.70;99.90;;;;;;4974175;28;20792;-83
2023/07/18 12:47:24;;;;;;;4.70;3.70;;;22.10;99.90;;;;;;4974425;28;20392;-84
2023/07/18 12:49:49;;;;;;;4.45;3.80;;;22.50;99.90;;;;;;4982379;28;20406;-84
2023/07/18 12:52:15;;;;;;;5.07;3.80;;;23.40;99.90;;;;;;4992581;28;20402;-83
2023/07/18 12:54:41;;;;;;;4.00;3.60;;;24.80;99.90;;;;;;4999970;28;20406;-84
2023/07/18 12:57:06;;;;;;;6.73;3.90;;;25.40;99.90;;;;;;4993887;28;20394;-82
2023/07/18 12:59:32;;;;;;;6.20;3.55;;;25.10;99.90;;;;;;4994284;28;20386;-84
2023/07/18 13:01:58;;;;;;;5.03;3.60;;;24.40;99.90;;;;;;4992776;28;20397;-83
2023/07/18 13:04:24;;;;;;;5.90;3.50;;;24.00;99.90;;;;;;4998022;28;20402;-83
2023/07/18 13:06:50;;;;;;;5.35;3.50;;;23.90;99.90;;;;;;4979896;28;20400;-83
2023/07/18 13:09:15;;;;;;;5.47;3.50;;;23.50;99.90;;;;;;4978840;28;20400;-83